sensor_id;sensor_type;location;lat;lon;timestamp;P1;durP1;ratioP1;P2;durP2;ratioP2
74363;SDS011;62797;49.740;10.154;2024-03-02T00:00:27;43.20;;;20.15;;
74363;SDS011;62797;49.740;10.154;2024-03-02T00:02:59;53.42;;;21.30;;
74363;SDS011;62797;49.740;10.154;2024-03-02T00:05:38;46.90;;;22.25;;
74363;SDS011;62797;49.740;10.154;2024-03-02T00:08:12;47.22;;;24.00;;
74363;SDS011;62797;49.740;10.154;2024-03-02T00:10:56;51.13;;;23.27;;
74363;SDS011;62797;49.740;10.154;2024-03-02T00:16:04;56.58;;;23.67;;
74363;SDS011;62797;49.740;10.154;2024-03-02T00:18:36;55.30;;;24.50;;
74363;SDS011;62797;49.740;10.154;2024-03-02T00:21:08;58.92;;;26.58;;
74363;SDS011;62797;49.740;10.154;2024-03-02T00:23:40;48.60;;;24.55;;
74363;SDS011;62797;49.740;10.154;2024-03-02T00:26:12;54.35;;;25.80;;
74363;SDS011;62797;49.740;10.154;2024-03-02T00:28:45;60.60;;;27.73;;
74363;SDS011;62797;49.740;10.154;2024-03-02T00:34:13;425.02;;;131.07;;
74363;SDS011;62797;49.740;10.154;2024-03-02T00:36:48;174.07;;;60.80;;
74363;SDS011;62797;49.740;10.154;2024-03-02T00:39:20;78.10;;;31.48;;
74363;SDS011;62797;49.740;10.154;2024-03-02T00:41:52;55.33;;;25.20;;
74363;SDS011;62797;49.740;10.154;2024-03-02T00:44:25;52.80;;;22.33;;
74363;SDS011;62797;49.740;10.154;2024-03-02T00:46:57;40.65;;;19.30;;
74363;SDS011;62797;49.740;10.154;2024-03-02T00:49:30;48.05;;;20.52;;
74363;SDS011;62797;49.740;10.154;2024-03-02T00:52:03;41.78;;;20.75;;
74363;SDS011;62797;49.740;10.154;2024-03-02T00:54:36;42.10;;;18.05;;
74363;SDS011;62797;49.740;10.154;2024-03-02T00:57:10;37.78;;;18.52;;
74363;SDS011;62797;49.740;10.154;2024-03-02T00:59:44;44.05;;;19.13;;
74363;SDS011;62797;49.740;10.154;2024-03-02T01:02:17;37.25;;;18.77;;
74363;SDS011;62797;49.740;10.154;2024-03-02T01:04:51;46.70;;;20.95;;
74363;SDS011;62797;49.740;10.154;2024-03-02T01:07:24;40.22;;;20.65;;
74363;SDS011;62797;49.740;10.154;2024-03-02T01:09:55;38.03;;;17.42;;
74363;SDS011;62797;49.740;10.154;2024-03-02T01:12:27;35.92;;;16.85;;
74363;SDS011;62797;49.740;10.154;2024-03-02T01:15:00;33.35;;;16.33;;
74363;SDS011;62797;49.740;10.154;2024-03-02T01:17:34;36.70;;;18.33;;
74363;SDS011;62797;49.740;10.154;2024-03-02T01:20:09;30.13;;;14.80;;
74363;SDS011;62797;49.740;10.154;2024-03-02T01:22:41;36.33;;;16.75;;
74363;SDS011;62797;49.740;10.154;2024-03-02T01:25:14;39.88;;;17.88;;
74363;SDS011;62797;49.740;10.154;2024-03-02T01:27:45;34.40;;;16.73;;
74363;SDS011;62797;49.740;10.154;2024-03-02T01:30:17;41.55;;;18.08;;
74363;SDS011;62797;49.740;10.154;2024-03-02T01:32:49;33.03;;;15.75;;
74363;SDS011;62797;49.740;10.154;2024-03-02T01:35:21;33.60;;;16.95;;
74363;SDS011;62797;49.740;10.154;2024-03-02T01:37:53;40.88;;;20.00;;
74363;SDS011;62797;49.740;10.154;2024-03-02T01:40:28;36.28;;;18.40;;
74363;SDS011;62797;49.740;10.154;2024-03-02T01:43:01;36.10;;;17.95;;
74363;SDS011;62797;49.740;10.154;2024-03-02T01:45:34;43.58;;;19.73;;
74363;SDS011;62797;49.740;10.154;2024-03-02T01:48:07;42.63;;;19.70;;
74363;SDS011;62797;49.740;10.154;2024-03-02T01:50:39;40.53;;;19.08;;
74363;SDS011;62797;49.740;10.154;2024-03-02T01:53:11;43.03;;;19.10;;
74363;SDS011;62797;49.740;10.154;2024-03-02T01:55:43;39.38;;;19.23;;
74363;SDS011;62797;49.740;10.154;2024-03-02T01:58:23;47.58;;;20.48;;
74363;SDS011;62797;49.740;10.154;2024-03-02T02:00:55;41.60;;;17.30;;
74363;SDS011;62797;49.740;10.154;2024-03-02T02:03:30;44.22;;;19.88;;
74363;SDS011;62797;49.740;10.154;2024-03-02T02:06:02;36.88;;;17.73;;
74363;SDS011;62797;49.740;10.154;2024-03-02T02:08:36;44.55;;;19.90;;
74363;SDS011;62797;49.740;10.154;2024-03-02T02:11:08;41.40;;;18.58;;
74363;SDS011;62797;49.740;10.154;2024-03-02T02:13:40;33.55;;;17.58;;
74363;SDS011;62797;49.740;10.154;2024-03-02T02:16:12;40.00;;;19.35;;
74363;SDS011;62797;49.740;10.154;2024-03-02T02:18:45;33.47;;;16.20;;
74363;SDS011;62797;49.740;10.154;2024-03-02T02:21:16;34.65;;;18.23;;
74363;SDS011;62797;49.740;10.154;2024-03-02T02:23:48;41.17;;;18.33;;
74363;SDS011;62797;49.740;10.154;2024-03-02T02:26:21;44.80;;;20.63;;
74363;SDS011;62797;49.740;10.154;2024-03-02T02:28:53;37.22;;;17.42;;
74363;SDS011;62797;49.740;10.154;2024-03-02T02:31:25;38.38;;;16.48;;
74363;SDS011;62797;49.740;10.154;2024-03-02T02:34:00;48.22;;;23.05;;
74363;SDS011;62797;49.740;10.154;2024-03-02T02:36:33;40.42;;;20.67;;
74363;SDS011;62797;49.740;10.154;2024-03-02T02:39:06;35.20;;;18.10;;
74363;SDS011;62797;49.740;10.154;2024-03-02T02:41:41;36.00;;;17.02;;
74363;SDS011;62797;49.740;10.154;2024-03-02T02:44:14;34.92;;;16.63;;
74363;SDS011;62797;49.740;10.154;2024-03-02T02:46:46;33.60;;;17.33;;
74363;SDS011;62797;49.740;10.154;2024-03-02T02:49:19;37.63;;;19.85;;
74363;SDS011;62797;49.740;10.154;2024-03-02T02:51:52;43.78;;;21.05;;
74363;SDS011;62797;49.740;10.154;2024-03-02T02:54:24;41.45;;;19.10;;
74363;SDS011;62797;49.740;10.154;2024-03-02T02:56:56;39.08;;;18.48;;
74363;SDS011;62797;49.740;10.154;2024-03-02T02:59:28;41.55;;;19.45;;
74363;SDS011;62797;49.740;10.154;2024-03-02T03:02:00;34.38;;;16.77;;
74363;SDS011;62797;49.740;10.154;2024-03-02T03:04:32;41.63;;;20.55;;
74363;SDS011;62797;49.740;10.154;2024-03-02T03:07:04;36.65;;;18.98;;
74363;SDS011;62797;49.740;10.154;2024-03-02T03:09:37;39.13;;;18.02;;
74363;SDS011;62797;49.740;10.154;2024-03-02T03:12:10;42.25;;;18.77;;
74363;SDS011;62797;49.740;10.154;2024-03-02T03:14:42;40.90;;;17.90;;
74363;SDS011;62797;49.740;10.154;2024-03-02T03:17:15;43.58;;;18.90;;
74363;SDS011;62797;49.740;10.154;2024-03-02T03:19:55;39.08;;;17.42;;
74363;SDS011;62797;49.740;10.154;2024-03-02T03:22:27;37.83;;;16.45;;
74363;SDS011;62797;49.740;10.154;2024-03-02T03:24:59;47.55;;;22.10;;
74363;SDS011;62797;49.740;10.154;2024-03-02T03:27:32;42.72;;;19.23;;
74363;SDS011;62797;49.740;10.154;2024-03-02T03:30:05;41.42;;;18.40;;
74363;SDS011;62797;49.740;10.154;2024-03-02T03:32:37;40.40;;;16.67;;
74363;SDS011;62797;49.740;10.154;2024-03-02T03:35:10;43.88;;;20.13;;
74363;SDS011;62797;49.740;10.154;2024-03-02T03:37:44;39.92;;;17.90;;
74363;SDS011;62797;49.740;10.154;2024-03-02T03:40:19;42.58;;;18.02;;
74363;SDS011;62797;49.740;10.154;2024-03-02T03:42:51;43.17;;;19.52;;
74363;SDS011;62797;49.740;10.154;2024-03-02T03:45:23;44.58;;;21.92;;
74363;SDS011;62797;49.740;10.154;2024-03-02T03:48:00;36.58;;;17.30;;
74363;SDS011;62797;49.740;10.154;2024-03-02T03:50:31;37.63;;;16.30;;
74363;SDS011;62797;49.740;10.154;2024-03-02T03:53:03;34.13;;;16.27;;
74363;SDS011;62797;49.740;10.154;2024-03-02T03:55:42;34.08;;;16.02;;
74363;SDS011;62797;49.740;10.154;2024-03-02T03:58:15;37.85;;;18.50;;
74363;SDS011;62797;49.740;10.154;2024-03-02T04:00:48;39.60;;;17.95;;
74363;SDS011;62797;49.740;10.154;2024-03-02T04:03:20;32.40;;;15.45;;
74363;SDS011;62797;49.740;10.154;2024-03-02T04:05:52;42.65;;;19.10;;
74363;SDS011;62797;49.740;10.154;2024-03-02T04:08:24;36.95;;;16.65;;
74363;SDS011;62797;49.740;10.154;2024-03-02T04:10:56;35.22;;;17.42;;
74363;SDS011;62797;49.740;10.154;2024-03-02T04:13:29;40.28;;;17.58;;
74363;SDS011;62797;49.740;10.154;2024-03-02T04:16:00;38.75;;;17.63;;
74363;SDS011;62797;49.740;10.154;2024-03-02T04:18:35;35.03;;;16.08;;
74363;SDS011;62797;49.740;10.154;2024-03-02T04:21:07;37.67;;;18.75;;
74363;SDS011;62797;49.740;10.154;2024-03-02T04:23:39;30.05;;;15.32;;
74363;SDS011;62797;49.740;10.154;2024-03-02T04:26:11;33.10;;;16.52;;
74363;SDS011;62797;49.740;10.154;2024-03-02T04:28:44;40.45;;;18.70;;
74363;SDS011;62797;49.740;10.154;2024-03-02T04:34:06;41.55;;;18.45;;
74363;SDS011;62797;49.740;10.154;2024-03-02T04:36:39;36.88;;;15.60;;
74363;SDS011;62797;49.740;10.154;2024-03-02T04:39:12;42.35;;;18.33;;
74363;SDS011;62797;49.740;10.154;2024-03-02T04:41:43;38.88;;;16.73;;
74363;SDS011;62797;49.740;10.154;2024-03-02T04:44:15;37.97;;;17.75;;
74363;SDS011;62797;49.740;10.154;2024-03-02T04:46:48;42.95;;;18.05;;
74363;SDS011;62797;49.740;10.154;2024-03-02T04:49:20;42.22;;;19.17;;
74363;SDS011;62797;49.740;10.154;2024-03-02T04:51:52;39.42;;;17.90;;
74363;SDS011;62797;49.740;10.154;2024-03-02T04:54:24;34.00;;;15.43;;
74363;SDS011;62797;49.740;10.154;2024-03-02T04:57:04;42.70;;;18.42;;
74363;SDS011;62797;49.740;10.154;2024-03-02T04:59:36;33.45;;;15.30;;
74363;SDS011;62797;49.740;10.154;2024-03-02T05:02:07;44.97;;;18.63;;
74363;SDS011;62797;49.740;10.154;2024-03-02T05:04:39;34.33;;;16.55;;
74363;SDS011;62797;49.740;10.154;2024-03-02T05:07:12;37.92;;;17.90;;
74363;SDS011;62797;49.740;10.154;2024-03-02T05:09:44;44.60;;;19.45;;
74363;SDS011;62797;49.740;10.154;2024-03-02T05:12:26;33.72;;;16.67;;
74363;SDS011;62797;49.740;10.154;2024-03-02T05:15:16;41.22;;;19.17;;
74363;SDS011;62797;49.740;10.154;2024-03-02T05:17:48;38.40;;;17.65;;
74363;SDS011;62797;49.740;10.154;2024-03-02T05:20:20;40.50;;;17.92;;
74363;SDS011;62797;49.740;10.154;2024-03-02T05:22:53;45.40;;;19.30;;
74363;SDS011;62797;49.740;10.154;2024-03-02T05:25:25;35.55;;;15.55;;
74363;SDS011;62797;49.740;10.154;2024-03-02T05:27:56;37.42;;;17.95;;
74363;SDS011;62797;49.740;10.154;2024-03-02T05:30:28;33.97;;;15.82;;
74363;SDS011;62797;49.740;10.154;2024-03-02T05:33:00;39.40;;;18.65;;
74363;SDS011;62797;49.740;10.154;2024-03-02T05:35:40;38.63;;;16.85;;
74363;SDS011;62797;49.740;10.154;2024-03-02T05:38:19;33.65;;;16.20;;
74363;SDS011;62797;49.740;10.154;2024-03-02T05:40:57;42.38;;;17.50;;
74363;SDS011;62797;49.740;10.154;2024-03-02T05:43:29;33.47;;;15.73;;
74363;SDS011;62797;49.740;10.154;2024-03-02T05:46:02;35.03;;;15.25;;
74363;SDS011;62797;49.740;10.154;2024-03-02T05:48:33;47.20;;;19.52;;
74363;SDS011;62797;49.740;10.154;2024-03-02T05:51:06;30.95;;;13.25;;
74363;SDS011;62797;49.740;10.154;2024-03-02T05:53:38;36.63;;;17.10;;
74363;SDS011;62797;49.740;10.154;2024-03-02T05:56:10;40.90;;;16.15;;
74363;SDS011;62797;49.740;10.154;2024-03-02T05:58:44;37.03;;;17.80;;
74363;SDS011;62797;49.740;10.154;2024-03-02T06:01:35;31.90;;;15.43;;
74363;SDS011;62797;49.740;10.154;2024-03-02T06:04:09;36.50;;;15.90;;
74363;SDS011;62797;49.740;10.154;2024-03-02T06:06:44;36.38;;;14.85;;
74363;SDS011;62797;49.740;10.154;2024-03-02T06:09:17;34.13;;;15.48;;
74363;SDS011;62797;49.740;10.154;2024-03-02T06:11:58;32.85;;;15.55;;
74363;SDS011;62797;49.740;10.154;2024-03-02T06:14:37;33.53;;;15.60;;
74363;SDS011;62797;49.740;10.154;2024-03-02T06:17:10;35.08;;;14.90;;
74363;SDS011;62797;49.740;10.154;2024-03-02T06:19:41;34.42;;;15.02;;
74363;SDS011;62797;49.740;10.154;2024-03-02T06:22:13;41.40;;;15.50;;
74363;SDS011;62797;49.740;10.154;2024-03-02T06:24:46;43.65;;;16.42;;
74363;SDS011;62797;49.740;10.154;2024-03-02T06:27:17;37.10;;;17.33;;
74363;SDS011;62797;49.740;10.154;2024-03-02T06:29:50;41.55;;;16.45;;
74363;SDS011;62797;49.740;10.154;2024-03-02T06:32:29;39.63;;;17.27;;
74363;SDS011;62797;49.740;10.154;2024-03-02T06:35:03;60.90;;;25.23;;
74363;SDS011;62797;49.740;10.154;2024-03-02T06:37:37;55.50;;;25.48;;
74363;SDS011;62797;49.740;10.154;2024-03-02T06:40:11;40.25;;;17.67;;
74363;SDS011;62797;49.740;10.154;2024-03-02T06:42:42;65.88;;;25.58;;
74363;SDS011;62797;49.740;10.154;2024-03-02T06:45:14;50.15;;;22.25;;
74363;SDS011;62797;49.740;10.154;2024-03-02T06:47:49;44.78;;;20.67;;
74363;SDS011;62797;49.740;10.154;2024-03-02T06:50:25;58.28;;;24.38;;
74363;SDS011;62797;49.740;10.154;2024-03-02T06:53:00;48.97;;;22.08;;
74363;SDS011;62797;49.740;10.154;2024-03-02T06:55:46;49.95;;;23.20;;
74363;SDS011;62797;49.740;10.154;2024-03-02T06:58:17;44.60;;;20.58;;
74363;SDS011;62797;49.740;10.154;2024-03-02T07:00:50;44.47;;;20.67;;
74363;SDS011;62797;49.740;10.154;2024-03-02T07:03:23;47.53;;;21.98;;
74363;SDS011;62797;49.740;10.154;2024-03-02T07:05:57;41.45;;;21.20;;
74363;SDS011;62797;49.740;10.154;2024-03-02T07:08:30;48.33;;;20.27;;
74363;SDS011;62797;49.740;10.154;2024-03-02T07:11:02;52.40;;;21.52;;
74363;SDS011;62797;49.740;10.154;2024-03-02T07:13:34;47.20;;;21.20;;
74363;SDS011;62797;49.740;10.154;2024-03-02T07:16:07;38.70;;;19.10;;
74363;SDS011;62797;49.740;10.154;2024-03-02T07:19:00;45.28;;;21.65;;
74363;SDS011;62797;49.740;10.154;2024-03-02T07:21:33;52.60;;;21.30;;
74363;SDS011;62797;49.740;10.154;2024-03-02T07:24:05;49.03;;;22.40;;
74363;SDS011;62797;49.740;10.154;2024-03-02T07:26:38;51.35;;;23.90;;
74363;SDS011;62797;49.740;10.154;2024-03-02T07:29:11;68.80;;;29.60;;
74363;SDS011;62797;49.740;10.154;2024-03-02T07:31:44;61.83;;;25.85;;
74363;SDS011;62797;49.740;10.154;2024-03-02T07:34:21;63.00;;;25.85;;
74363;SDS011;62797;49.740;10.154;2024-03-02T07:36:55;60.50;;;26.15;;
74363;SDS011;62797;49.740;10.154;2024-03-02T07:39:27;58.80;;;25.73;;
74363;SDS011;62797;49.740;10.154;2024-03-02T07:41:59;66.72;;;26.35;;
74363;SDS011;62797;49.740;10.154;2024-03-02T07:44:32;60.70;;;26.70;;
74363;SDS011;62797;49.740;10.154;2024-03-02T07:47:07;54.80;;;24.85;;
74363;SDS011;62797;49.740;10.154;2024-03-02T07:49:40;55.20;;;24.95;;
74363;SDS011;62797;49.740;10.154;2024-03-02T07:52:14;46.60;;;23.08;;
74363;SDS011;62797;49.740;10.154;2024-03-02T07:54:46;53.40;;;22.08;;
74363;SDS011;62797;49.740;10.154;2024-03-02T07:57:18;46.70;;;20.98;;
74363;SDS011;62797;49.740;10.154;2024-03-02T07:59:51;47.78;;;19.17;;
74363;SDS011;62797;49.740;10.154;2024-03-02T08:02:23;42.47;;;17.98;;
74363;SDS011;62797;49.740;10.154;2024-03-02T08:04:57;36.78;;;16.33;;
74363;SDS011;62797;49.740;10.154;2024-03-02T08:07:29;32.78;;;15.63;;
74363;SDS011;62797;49.740;10.154;2024-03-02T08:10:01;39.38;;;17.65;;
74363;SDS011;62797;49.740;10.154;2024-03-02T08:12:32;32.53;;;16.00;;
74363;SDS011;62797;49.740;10.154;2024-03-02T08:15:05;35.42;;;15.68;;
74363;SDS011;62797;49.740;10.154;2024-03-02T08:17:38;32.17;;;16.65;;
74363;SDS011;62797;49.740;10.154;2024-03-02T08:20:16;35.00;;;15.60;;
74363;SDS011;62797;49.740;10.154;2024-03-02T08:22:47;35.58;;;15.70;;
74363;SDS011;62797;49.740;10.154;2024-03-02T08:25:20;33.53;;;15.40;;
74363;SDS011;62797;49.740;10.154;2024-03-02T08:27:54;29.17;;;15.55;;
74363;SDS011;62797;49.740;10.154;2024-03-02T08:33:56;27.57;;;13.57;;
74363;SDS011;62797;49.740;10.154;2024-03-02T08:36:29;33.42;;;16.48;;
74363;SDS011;62797;49.740;10.154;2024-03-02T08:39:00;31.13;;;14.05;;
74363;SDS011;62797;49.740;10.154;2024-03-02T08:41:33;32.17;;;15.48;;
74363;SDS011;62797;49.740;10.154;2024-03-02T08:44:06;29.58;;;15.13;;
74363;SDS011;62797;49.740;10.154;2024-03-02T08:46:38;30.08;;;14.70;;
74363;SDS011;62797;49.740;10.154;2024-03-02T08:49:12;29.38;;;15.27;;
74363;SDS011;62797;49.740;10.154;2024-03-02T08:51:45;27.55;;;13.27;;
74363;SDS011;62797;49.740;10.154;2024-03-02T08:54:26;28.60;;;14.00;;
74363;SDS011;62797;49.740;10.154;2024-03-02T08:57:12;30.02;;;15.27;;
74363;SDS011;62797;49.740;10.154;2024-03-02T08:59:45;26.52;;;13.13;;
74363;SDS011;62797;49.740;10.154;2024-03-02T09:02:18;31.23;;;15.75;;
74363;SDS011;62797;49.740;10.154;2024-03-02T09:04:54;28.90;;;14.67;;
74363;SDS011;62797;49.740;10.154;2024-03-02T09:07:27;26.05;;;12.93;;
74363;SDS011;62797;49.740;10.154;2024-03-02T09:09:58;28.73;;;15.70;;
74363;SDS011;62797;49.740;10.154;2024-03-02T09:12:32;28.55;;;15.82;;
74363;SDS011;62797;49.740;10.154;2024-03-02T09:15:04;26.05;;;14.05;;
74363;SDS011;62797;49.740;10.154;2024-03-02T09:17:40;28.05;;;14.82;;
74363;SDS011;62797;49.740;10.154;2024-03-02T09:20:11;30.83;;;16.73;;
74363;SDS011;62797;49.740;10.154;2024-03-02T09:22:46;24.50;;;14.07;;
74363;SDS011;62797;49.740;10.154;2024-03-02T09:25:20;26.15;;;12.77;;
74363;SDS011;62797;49.740;10.154;2024-03-02T09:27:52;24.38;;;12.48;;
74363;SDS011;62797;49.740;10.154;2024-03-02T09:30:23;21.67;;;12.32;;
74363;SDS011;62797;49.740;10.154;2024-03-02T09:32:56;23.60;;;13.65;;
74363;SDS011;62797;49.740;10.154;2024-03-02T09:35:27;21.27;;;11.93;;
74363;SDS011;62797;49.740;10.154;2024-03-02T09:38:00;23.02;;;11.85;;
74363;SDS011;62797;49.740;10.154;2024-03-02T09:40:32;26.33;;;13.77;;
74363;SDS011;62797;49.740;10.154;2024-03-02T09:43:04;29.02;;;13.63;;
74363;SDS011;62797;49.740;10.154;2024-03-02T09:45:38;29.33;;;14.95;;
74363;SDS011;62797;49.740;10.154;2024-03-02T09:48:11;19.67;;;10.45;;
74363;SDS011;62797;49.740;10.154;2024-03-02T09:50:43;22.70;;;12.57;;
74363;SDS011;62797;49.740;10.154;2024-03-02T09:53:15;20.70;;;11.60;;
74363;SDS011;62797;49.740;10.154;2024-03-02T09:55:48;21.33;;;11.63;;
74363;SDS011;62797;49.740;10.154;2024-03-02T09:58:28;20.05;;;11.80;;
74363;SDS011;62797;49.740;10.154;2024-03-02T10:01:01;24.02;;;11.50;;
74363;SDS011;62797;49.740;10.154;2024-03-02T10:03:33;19.02;;;10.75;;
74363;SDS011;62797;49.740;10.154;2024-03-02T10:06:18;19.20;;;10.50;;
74363;SDS011;62797;49.740;10.154;2024-03-02T10:08:54;19.88;;;10.60;;
74363;SDS011;62797;49.740;10.154;2024-03-02T10:14:05;20.52;;;10.30;;
74363;SDS011;62797;49.740;10.154;2024-03-02T10:16:44;21.17;;;10.82;;
74363;SDS011;62797;49.740;10.154;2024-03-02T10:19:20;19.83;;;12.50;;
74363;SDS011;62797;49.740;10.154;2024-03-02T10:21:54;16.38;;;10.55;;
74363;SDS011;62797;49.740;10.154;2024-03-02T10:24:26;20.15;;;11.80;;
74363;SDS011;62797;49.740;10.154;2024-03-02T10:26:59;29.15;;;15.30;;
74363;SDS011;62797;49.740;10.154;2024-03-02T10:29:31;23.45;;;12.82;;
74363;SDS011;62797;49.740;10.154;2024-03-02T10:32:03;27.00;;;12.15;;
74363;SDS011;62797;49.740;10.154;2024-03-02T10:34:36;19.90;;;10.77;;
74363;SDS011;62797;49.740;10.154;2024-03-02T10:37:10;17.95;;;11.13;;
74363;SDS011;62797;49.740;10.154;2024-03-02T10:39:43;18.42;;;10.32;;
74363;SDS011;62797;49.740;10.154;2024-03-02T10:42:17;19.00;;;10.82;;
74363;SDS011;62797;49.740;10.154;2024-03-02T10:44:52;28.52;;;13.00;;
74363;SDS011;62797;49.740;10.154;2024-03-02T10:47:25;19.95;;;11.00;;
74363;SDS011;62797;49.740;10.154;2024-03-02T10:49:59;18.75;;;9.63;;
74363;SDS011;62797;49.740;10.154;2024-03-02T10:52:33;15.70;;;9.68;;
74363;SDS011;62797;49.740;10.154;2024-03-02T10:55:16;17.60;;;9.95;;
74363;SDS011;62797;49.740;10.154;2024-03-02T10:57:52;19.52;;;10.57;;
74363;SDS011;62797;49.740;10.154;2024-03-02T11:03:04;17.65;;;10.27;;
74363;SDS011;62797;49.740;10.154;2024-03-02T11:05:43;20.30;;;11.10;;
74363;SDS011;62797;49.740;10.154;2024-03-02T11:08:18;17.95;;;9.52;;
74363;SDS011;62797;49.740;10.154;2024-03-02T11:10:51;19.20;;;9.55;;
74363;SDS011;62797;49.740;10.154;2024-03-02T11:13:32;17.42;;;8.90;;
74363;SDS011;62797;49.740;10.154;2024-03-02T11:19:06;17.05;;;9.38;;
74363;SDS011;62797;49.740;10.154;2024-03-02T11:21:41;13.40;;;8.27;;
74363;SDS011;62797;49.740;10.154;2024-03-02T11:27:00;16.30;;;9.15;;
74363;SDS011;62797;49.740;10.154;2024-03-02T11:32:14;13.43;;;8.17;;
74363;SDS011;62797;49.740;10.154;2024-03-02T11:34:53;12.07;;;7.00;;
74363;SDS011;62797;49.740;10.154;2024-03-02T11:37:29;17.98;;;8.75;;
74363;SDS011;62797;49.740;10.154;2024-03-02T11:40:01;12.50;;;7.78;;
74363;SDS011;62797;49.740;10.154;2024-03-02T11:42:36;13.70;;;8.15;;
74363;SDS011;62797;49.740;10.154;2024-03-02T11:45:10;14.15;;;8.25;;
74363;SDS011;62797;49.740;10.154;2024-03-02T11:47:42;11.80;;;7.90;;
74363;SDS011;62797;49.740;10.154;2024-03-02T11:50:57;11.63;;;6.20;;
74363;SDS011;62797;49.740;10.154;2024-03-02T11:53:23;12.00;;;7.35;;
74363;SDS011;62797;49.740;10.154;2024-03-02T11:55:55;12.60;;;7.60;;
74363;SDS011;62797;49.740;10.154;2024-03-02T11:58:35;11.55;;;6.55;;
74363;SDS011;62797;49.740;10.154;2024-03-02T12:01:11;11.35;;;6.22;;
74363;SDS011;62797;49.740;10.154;2024-03-02T12:03:45;12.52;;;7.30;;
74363;SDS011;62797;49.740;10.154;2024-03-02T12:06:17;9.65;;;6.10;;
74363;SDS011;62797;49.740;10.154;2024-03-02T12:08:52;10.13;;;5.82;;
74363;SDS011;62797;49.740;10.154;2024-03-02T12:11:26;8.15;;;5.93;;
74363;SDS011;62797;49.740;10.154;2024-03-02T12:13:58;8.65;;;5.70;;
74363;SDS011;62797;49.740;10.154;2024-03-02T12:16:31;7.30;;;5.18;;
74363;SDS011;62797;49.740;10.154;2024-03-02T12:19:03;9.43;;;4.65;;
74363;SDS011;62797;49.740;10.154;2024-03-02T12:21:35;7.85;;;4.85;;
74363;SDS011;62797;49.740;10.154;2024-03-02T12:24:07;6.30;;;4.47;;
74363;SDS011;62797;49.740;10.154;2024-03-02T12:26:39;7.55;;;4.93;;
74363;SDS011;62797;49.740;10.154;2024-03-02T12:29:12;7.55;;;5.43;;
74363;SDS011;62797;49.740;10.154;2024-03-02T12:31:50;9.05;;;5.13;;
74363;SDS011;62797;49.740;10.154;2024-03-02T12:34:24;6.72;;;4.70;;
74363;SDS011;62797;49.740;10.154;2024-03-02T12:36:57;7.55;;;4.13;;
74363;SDS011;62797;49.740;10.154;2024-03-02T12:39:30;6.78;;;4.22;;
74363;SDS011;62797;49.740;10.154;2024-03-02T12:45:01;5.70;;;3.65;;
74363;SDS011;62797;49.740;10.154;2024-03-02T12:47:36;8.23;;;4.88;;
74363;SDS011;62797;49.740;10.154;2024-03-02T12:50:21;17.08;;;5.40;;
74363;SDS011;62797;49.740;10.154;2024-03-02T12:53:03;9.02;;;4.78;;
74363;SDS011;62797;49.740;10.154;2024-03-02T12:55:49;6.30;;;4.72;;
74363;SDS011;62797;49.740;10.154;2024-03-02T12:58:23;7.25;;;4.20;;
74363;SDS011;62797;49.740;10.154;2024-03-02T13:01:08;8.10;;;4.88;;
74363;SDS011;62797;49.740;10.154;2024-03-02T13:03:41;8.52;;;4.32;;
74363;SDS011;62797;49.740;10.154;2024-03-02T13:06:14;6.22;;;4.55;;
74363;SDS011;62797;49.740;10.154;2024-03-02T13:08:50;7.63;;;4.55;;
74363;SDS011;62797;49.740;10.154;2024-03-02T13:11:23;5.40;;;3.33;;
74363;SDS011;62797;49.740;10.154;2024-03-02T13:13:57;5.57;;;4.25;;
74363;SDS011;62797;49.740;10.154;2024-03-02T13:16:29;5.38;;;4.03;;
74363;SDS011;62797;49.740;10.154;2024-03-02T13:22:29;10.93;;;3.92;;
74363;SDS011;62797;49.740;10.154;2024-03-02T13:25:02;7.22;;;4.28;;
74363;SDS011;62797;49.740;10.154;2024-03-02T13:27:37;5.55;;;3.45;;
74363;SDS011;62797;49.740;10.154;2024-03-02T13:30:10;5.47;;;4.30;;
74363;SDS011;62797;49.740;10.154;2024-03-02T13:32:43;6.78;;;4.47;;
74363;SDS011;62797;49.740;10.154;2024-03-02T13:35:16;4.10;;;3.20;;
74363;SDS011;62797;49.740;10.154;2024-03-02T13:37:48;4.78;;;3.60;;
74363;SDS011;62797;49.740;10.154;2024-03-02T13:40:25;7.03;;;3.75;;
74363;SDS011;62797;49.740;10.154;2024-03-02T13:42:57;5.07;;;3.78;;
74363;SDS011;62797;49.740;10.154;2024-03-02T13:45:29;6.50;;;4.30;;
74363;SDS011;62797;49.740;10.154;2024-03-02T13:48:05;4.95;;;3.63;;
74363;SDS011;62797;49.740;10.154;2024-03-02T13:50:38;5.47;;;3.65;;
74363;SDS011;62797;49.740;10.154;2024-03-02T13:53:10;7.45;;;4.25;;
74363;SDS011;62797;49.740;10.154;2024-03-02T13:55:42;4.75;;;3.50;;
74363;SDS011;62797;49.740;10.154;2024-03-02T13:58:21;4.20;;;3.28;;
74363;SDS011;62797;49.740;10.154;2024-03-02T14:00:54;13.98;;;3.72;;
74363;SDS011;62797;49.740;10.154;2024-03-02T14:03:28;5.50;;;3.47;;
74363;SDS011;62797;49.740;10.154;2024-03-02T14:06:00;5.55;;;3.22;;
74363;SDS011;62797;49.740;10.154;2024-03-02T14:08:32;6.63;;;3.03;;
74363;SDS011;62797;49.740;10.154;2024-03-02T14:11:06;5.47;;;3.30;;
74363;SDS011;62797;49.740;10.154;2024-03-02T14:13:38;6.75;;;3.53;;
74363;SDS011;62797;49.740;10.154;2024-03-02T14:16:10;4.70;;;2.97;;
74363;SDS011;62797;49.740;10.154;2024-03-02T14:18:43;4.05;;;2.65;;
74363;SDS011;62797;49.740;10.154;2024-03-02T14:21:15;5.20;;;2.92;;
74363;SDS011;62797;49.740;10.154;2024-03-02T14:23:47;4.95;;;3.15;;
74363;SDS011;62797;49.740;10.154;2024-03-02T14:26:19;4.03;;;3.08;;
74363;SDS011;62797;49.740;10.154;2024-03-02T14:28:51;5.40;;;3.30;;
74363;SDS011;62797;49.740;10.154;2024-03-02T14:34:15;7.55;;;4.45;;
74363;SDS011;62797;49.740;10.154;2024-03-02T14:36:55;5.45;;;4.00;;
74363;SDS011;62797;49.740;10.154;2024-03-02T14:39:27;6.82;;;4.72;;
74363;SDS011;62797;49.740;10.154;2024-03-02T14:41:59;8.65;;;4.15;;
74363;SDS011;62797;49.740;10.154;2024-03-02T14:44:31;7.60;;;4.68;;
74363;SDS011;62797;49.740;10.154;2024-03-02T14:47:12;6.85;;;4.50;;
74363;SDS011;62797;49.740;10.154;2024-03-02T14:49:44;6.63;;;4.70;;
74363;SDS011;62797;49.740;10.154;2024-03-02T14:52:16;5.90;;;3.67;;
74363;SDS011;62797;49.740;10.154;2024-03-02T14:54:50;9.10;;;3.45;;
74363;SDS011;62797;49.740;10.154;2024-03-02T14:57:23;8.27;;;4.30;;
74363;SDS011;62797;49.740;10.154;2024-03-02T15:00:02;6.00;;;4.00;;
74363;SDS011;62797;49.740;10.154;2024-03-02T15:02:35;6.57;;;3.28;;
74363;SDS011;62797;49.740;10.154;2024-03-02T15:05:08;5.70;;;3.72;;
74363;SDS011;62797;49.740;10.154;2024-03-02T15:07:49;8.13;;;3.92;;
74363;SDS011;62797;49.740;10.154;2024-03-02T15:10:21;8.13;;;4.97;;
74363;SDS011;62797;49.740;10.154;2024-03-02T15:12:53;6.28;;;4.20;;
74363;SDS011;62797;49.740;10.154;2024-03-02T15:15:25;8.25;;;4.40;;
74363;SDS011;62797;49.740;10.154;2024-03-02T15:17:57;10.15;;;5.00;;
74363;SDS011;62797;49.740;10.154;2024-03-02T15:20:32;8.30;;;5.40;;
74363;SDS011;62797;49.740;10.154;2024-03-02T15:23:10;10.00;;;6.00;;
74363;SDS011;62797;49.740;10.154;2024-03-02T15:25:43;10.02;;;5.88;;
74363;SDS011;62797;49.740;10.154;2024-03-02T15:28:23;9.20;;;6.53;;